Time;durP1;ratioP1;P1;durP2;ratioP2;P2;SDS_P1;SDS_P2;PMS_P1;PMS_P2;Temp;Humidity;BMP_temperature;BMP_pressure;BME280_temperature;BME280_humidity;BME280_pressure;Samples;Min_cycle;Max_cycle;Signal;HPM_P1;HPM_P2
2022/03/03 00:00:16;;;;;;;117.85;17.45;;;;;;;-1.66;100.00;102102.00;5052237;28;20027;-72
2022/03/03 00:02:42;;;;;;;55.67;16.60;;;;;;;-1.67;100.00;102097.69;5036143;28;20036;-72
2022/03/03 00:05:09;;;;;;;45.38;12.82;;;;;;;-1.62;100.00;102107.09;5052738;28;20024;-72
2022/03/03 00:07:35;;;;;;;60.42;13.55;;;;;;;-1.56;100.00;102104.28;5035920;28;20035;-72
2022/03/03 00:10:01;;;;;;;375.90;31.02;;;;;;;-1.74;100.00;102107.50;5070182;28;20032;-72
2022/03/03 00:12:26;;;;;;;48.33;12.48;;;;;;;-1.66;100.00;102108.13;5052451;28;20048;-72
2022/03/03 00:14:52;;;;;;;59.55;12.10;;;;;;;-1.70;100.00;102109.13;5070498;28;20024;-72
2022/03/03 00:17:17;;;;;;;268.88;22.77;;;;;;;-1.65;100.00;102114.22;5052314;28;20455;-72
2022/03/03 00:19:43;;;;;;;340.52;26.30;;;;;;;-1.75;100.00;102101.44;5052201;28;20056;-72
2022/03/03 00:22:09;;;;;;;174.73;15.82;;;;;;;-1.70;100.00;102102.13;5035784;28;20555;-72
2022/03/03 00:24:34;;;;;;;;;;;;;;;-1.70;100.00;102111.75;5036028;28;20024;-71
2022/03/03 00:26:59;;;;;;;395.23;31.92;;;;;;;-1.83;100.00;102110.41;5052176;28;19920;-72
2022/03/03 00:29:25;;;;;;;256.92;23.02;;;;;;;-1.87;100.00;102107.06;5052124;28;20509;-72
2022/03/03 00:31:50;;;;;;;55.55;12.43;;;;;;;-1.84;100.00;102104.34;5070333;28;20035;-72
2022/03/03 00:34:16;;;;;;;111.63;14.35;;;;;;;-1.72;100.00;102098.69;5070730;28;20063;-72
2022/03/03 00:36:42;;;;;;;54.75;11.85;;;;;;;-1.57;100.00;102104.31;5069141;28;20071;-72
2022/03/03 00:39:07;;;;;;;127.25;13.50;;;;;;;-1.49;100.00;102111.03;5035230;28;20028;-72
2022/03/03 00:41:33;;;;;;;47.58;10.27;;;;;;;-1.42;100.00;102101.22;5052424;28;20371;-72
2022/03/03 00:43:58;;;;;;;79.38;14.60;;;;;;;-1.74;100.00;102083.94;5052253;28;20148;-72
2022/03/03 00:46:27;;;;;;;31.55;11.20;;;;;;;-1.61;100.00;102090.50;5069250;28;20046;-72
2022/03/03 00:48:54;;;;;;;64.13;11.73;;;;;;;-1.60;100.00;102097.44;5068641;28;20131;-72
2022/03/03 00:51:20;;;;;;;28.35;10.80;;;;;;;-1.46;100.00;102094.34;5052084;28;20124;-72
2022/03/03 00:53:47;;;;;;;302.17;23.88;;;;;;;-1.63;100.00;102086.22;5068729;28;20044;-72
2022/03/03 00:56:12;;;;;;;356.85;28.85;;;;;;;-1.68;100.00;102082.91;5052159;28;20082;-72
2022/03/03 00:58:37;;;;;;;74.70;13.23;;;;;;;-1.62;100.00;102077.44;5051701;28;20032;-72
2022/03/03 01:01:03;;;;;;;43.17;13.80;;;;;;;-1.46;100.00;102083.88;5070827;28;20024;-72
2022/03/03 01:03:29;;;;;;;52.25;10.23;;;;;;;-1.34;100.00;102080.81;5073868;28;20078;-72
2022/03/03 01:05:54;;;;;;;40.75;9.85;;;;;;;-1.35;100.00;102071.25;5055812;28;20256;-72
2022/03/03 01:08:20;;;;;;;122.63;12.80;;;;;;;-1.43;100.00;102065.41;5055495;28;20382;-72
2022/03/03 01:10:45;;;;;;;38.05;10.18;;;;;;;-1.40;100.00;102072.34;5039028;28;20086;-72
2022/03/03 01:13:11;;;;;;;27.90;8.75;;;;;;;-1.39;100.00;102064.41;5073730;28;20448;-72
2022/03/03 01:15:36;;;;;;;68.40;9.50;;;;;;;-1.35;100.00;102060.78;5055753;28;20044;-72
2022/03/03 01:18:02;;;;;;;34.33;10.10;;;;;;;-1.27;100.00;102060.50;5073473;28;20060;-72
2022/03/03 01:20:28;;;;;;;42.65;10.98;;;;;;;-1.46;100.00;102044.59;5055344;28;20500;-72
2022/03/03 01:22:54;;;;;;;40.25;9.23;;;;;;;-1.46;100.00;102043.72;5055391;28;20028;-72
2022/03/03 01:25:19;;;;;;;174.02;14.35;;;;;;;-1.49;100.00;102036.84;5055481;28;20032;-72
2022/03/03 01:27:45;;;;;;;24.52;8.80;;;;;;;-1.51;100.00;102038.66;5055614;28;20034;-72
2022/03/03 01:30:11;;;;;;;;;;;;;;;-1.46;100.00;102044.59;5073352;28;20036;-72
2022/03/03 01:32:36;;;;;;;90.25;11.73;;;;;;;-1.52;100.00;102036.94;5073470;28;19908;-72
2022/03/03 01:35:02;;;;;;;46.75;9.43;;;;;;;-1.46;100.00;102034.09;5055115;28;20489;-72
2022/03/03 01:37:27;;;;;;;64.30;10.77;;;;;;;-1.51;100.00;102038.66;5038436;28;20074;-72
2022/03/03 01:39:52;;;;;;;53.65;9.23;;;;;;;-1.54;100.00;102033.53;5054765;28;20088;-72
2022/03/03 01:42:18;;;;;;;38.55;9.00;;;;;;;-1.47;100.00;102015.84;5073303;28;20036;-72
2022/03/03 01:44:45;;;;;;;27.52;8.23;;;;;;;-1.74;100.00;102013.25;5055257;28;20371;-72
2022/03/03 01:47:16;;;;;;;47.42;9.98;;;;;;;-1.54;100.00;102007.34;5073176;28;20075;-72
2022/03/03 01:49:42;;;;;;;39.05;9.02;;;;;;;-1.66;100.00;102010.34;5072471;28;20127;-72
2022/03/03 01:52:07;;;;;;;40.35;10.90;;;;;;;-1.61;100.00;102016.31;5072901;28;20036;-72
2022/03/03 01:54:32;;;;;;;46.55;9.85;;;;;;;-1.54;100.00;102039.63;5072779;28;20032;-72
2022/03/03 01:56:58;;;;;;;54.13;10.97;;;;;;;-1.58;100.00;102038.00;5038270;28;20535;-72
2022/03/03 01:59:25;;;;;;;36.95;8.48;;;;;;;-1.45;100.00;102048.94;5037832;28;20278;-72
2022/03/03 02:01:51;;;;;;;29.10;8.43;;;;;;;-1.41;100.00;102040.03;5072857;28;20020;-72
2022/03/03 02:04:16;;;;;;;77.25;12.68;;;;;;;-1.30;100.00;102051.00;5072463;28;20115;-72
2022/03/03 02:06:41;;;;;;;43.17;11.35;;;;;;;-1.22;100.00;102053.34;5072740;28;20032;-72
2022/03/03 02:09:07;;;;;;;78.32;10.18;;;;;;;-1.27;100.00;102037.78;5071091;28;20087;-72
2022/03/03 02:11:33;;;;;;;67.43;9.55;;;;;;;-1.24;100.00;102047.31;5054773;28;20028;-72
2022/03/03 02:14:02;;;;;;;32.15;9.45;;;;;;;-1.24;100.00;102042.06;5054406;28;20517;-72
2022/03/03 02:16:27;;;;;;;81.43;12.27;;;;;;;-1.38;100.00;102037.31;5072406;28;20036;-72
2022/03/03 02:18:53;;;;;;;185.02;15.80;;;;;;;-1.25;100.00;102029.03;5070890;28;20525;-72
2022/03/03 02:21:18;;;;;;;45.33;11.20;;;;;;;-1.16;100.00;102028.69;5072069;28;20512;-72
2022/03/03 02:23:44;;;;;;;39.38;10.10;;;;;;;-1.09;100.00;102025.78;5072353;28;20032;-72
2022/03/03 02:26:17;;;;;;;45.83;10.07;;;;;;;-0.97;100.00;102031.50;5072295;28;20035;-72
2022/03/03 02:29:02;;;;;;;35.67;9.52;;;;;;;-0.91;100.00;102032.13;5054257;28;20489;-72
2022/03/03 02:31:28;;;;;;;84.15;12.70;;;;;;;-0.92;100.00;102019.06;5074822;28;20122;-72
2022/03/03 02:33:54;;;;;;;136.98;14.88;;;;;;;-0.93;100.00;102030.47;5090161;28;20156;-72
2022/03/03 02:36:22;;;;;;;195.73;16.70;;;;;;;-0.96;100.00;102020.97;5073976;28;20052;-72
2022/03/03 02:38:51;;;;;;;56.85;12.60;;;;;;;-1.01;100.00;102017.63;5090684;28;20020;-72
2022/03/03 02:41:16;;;;;;;162.75;15.35;;;;;;;-0.99;100.00;102004.47;5092007;28;20040;-72
2022/03/03 02:43:42;;;;;;;202.05;22.10;;;;;;;-0.97;100.00;102003.50;5091984;28;20131;-71
2022/03/03 02:46:08;;;;;;;;;;;;;;;-0.78;100.00;102011.53;5074395;28;20040;-72
2022/03/03 02:48:33;;;;;;;67.85;11.57;;;;;;;-0.73;100.00;102000.84;5073623;28;19983;-71
2022/03/03 02:50:59;;;;;;;177.38;18.20;;;;;;;-0.75;100.00;102013.16;5091054;28;20043;-73
2022/03/03 02:53:24;;;;;;;138.15;18.25;;;;;;;-0.80;100.00;102007.25;5092563;28;20023;-71
2022/03/03 02:55:51;;;;;;;36.90;11.67;;;;;;;-0.68;100.00;101997.16;5056776;28;20097;-71
2022/03/03 02:58:16;;;;;;;52.65;12.65;;;;;;;-0.66;100.00;101989.22;5091683;28;20266;-71
2022/03/03 03:00:46;;;;;;;379.77;25.83;;;;;;;-0.64;100.00;101993.47;5090300;28;20520;-71
2022/03/03 03:03:13;;;;;;;244.80;25.35;;;;;;;-0.65;100.00;101985.69;5073681;28;20699;-71
2022/03/03 03:05:39;;;;;;;87.15;12.25;;;;;;;-0.68;100.00;101993.66;5073521;28;20024;-71
2022/03/03 03:08:05;;;;;;;79.15;14.25;;;;;;;-0.62;100.00;101982.94;5091570;28;20032;-71
2022/03/03 03:10:31;;;;;;;;;;;;;;;-0.63;100.00;101989.13;5091926;28;20095;-71
2022/03/03 03:12:57;;;;;;;308.33;30.80;;;;;;;-0.64;100.00;101983.00;5073148;28;20441;-74
2022/03/03 03:15:23;;;;;;;242.98;20.15;;;;;;;-0.64;100.00;101985.63;5090383;28;20026;-71
2022/03/03 03:17:48;;;;;;;48.47;11.80;;;;;;;-0.58;100.00;101979.28;5091294;28;20032;-71
2022/03/03 03:20:14;;;;;;;177.73;21.48;;;;;;;-0.54;100.00;101980.88;5073164;28;20032;-71
2022/03/03 03:22:39;;;;;;;123.07;18.58;;;;;;;-0.55;100.00;101984.41;5073132;28;20068;-71
2022/03/03 03:25:08;;;;;;;186.43;20.38;;;;;;;-0.48;100.00;101985.03;5072694;28;20119;-71
2022/03/03 03:27:35;;;;;;;87.75;14.30;;;;;;;-0.44;100.00;101984.84;5056214;28;20123;-71
2022/03/03 03:30:00;;;;;;;271.55;27.50;;;;;;;-0.51;100.00;101979.91;5073143;28;20043;-71
2022/03/03 03:32:25;;;;;;;123.88;18.30;;;;;;;-0.47;100.00;101992.84;5072745;28;20428;-71
2022/03/03 03:34:51;;;;;;;61.63;15.33;;;;;;;-0.37;100.00;101992.47;5073139;28;20024;-72
2022/03/03 03:37:16;;;;;;;196.37;24.00;;;;;;;-0.49;100.00;101983.31;5089757;28;20325;-72
2022/03/03 03:39:42;;;;;;;157.87;20.63;;;;;;;-0.49;100.00;101984.19;5056086;28;20746;-71
2022/03/03 03:42:08;;;;;;;114.35;17.40;;;;;;;-0.41;100.00;101985.63;5072727;28;20039;-72
2022/03/03 03:44:34;;;;;;;68.28;13.35;;;;;;;-0.46;100.00;101989.28;5089933;28;20035;-72
2022/03/03 03:47:00;;;;;;;352.05;33.20;;;;;;;-0.38;100.00;101967.13;5072857;28;20028;-72
2022/03/03 03:49:25;;;;;;;202.90;20.25;;;;;;;-0.66;100.00;101982.22;5090682;28;20598;-72
2022/03/03 03:51:50;;;;;;;96.85;14.60;;;;;;;-0.64;100.00;101979.53;5072737;28;20034;-72
2022/03/03 03:54:16;;;;;;;92.23;13.73;;;;;;;-0.55;100.00;101962.56;5089518;28;20176;-72
2022/03/03 03:56:41;;;;;;;89.80;13.35;;;;;;;-0.54;100.00;101949.41;5090752;28;20294;-72
2022/03/03 03:59:07;;;;;;;374.85;33.17;;;;;;;-0.76;100.00;101938.03;5083431;22;20026;-77
2022/03/03 04:01:32;;;;;;;66.70;16.30;;;;;;;-0.90;100.00;101942.06;5066714;28;20124;-77
2022/03/03 04:03:57;;;;;;;34.25;10.68;;;;;;;-0.69;100.00;101939.50;5016640;28;20401;-77
2022/03/03 04:06:23;;;;;;;263.88;23.15;;;;;;;-0.76;100.00;101938.03;5051093;28;20033;-76
2022/03/03 04:08:48;;;;;;;118.83;16.87;;;;;;;-0.67;100.00;101921.94;5050197;28;20078;-76
2022/03/03 04:11:14;;;;;;;78.30;11.27;;;;;;;-0.63;100.00;101918.28;5032527;28;20299;-76
2022/03/03 04:13:39;;;;;;;161.33;19.50;;;;;;;-0.68;100.00;101925.47;5032713;28;20025;-77
2022/03/03 04:16:05;;;;;;;85.93;15.48;;;;;;;-0.72;100.00;101916.03;5049392;28;20029;-77
2022/03/03 04:18:30;;;;;;;221.13;22.40;;;;;;;-0.68;100.00;101904.47;5050183;28;20452;-77
2022/03/03 04:20:56;;;;;;;213.23;21.98;;;;;;;-0.83;100.00;101905.13;5032574;28;20044;-77
2022/03/03 04:23:22;;;;;;;153.00;18.13;;;;;;;-0.82;100.00;101923.41;5049168;28;20378;-77
2022/03/03 04:25:47;;;;;;;;;;;;;;;-0.78;100.00;101922.34;5032683;28;20504;-77
2022/03/03 04:28:13;;;;;;;177.27;19.17;;;;;;;-0.89;100.00;101917.56;5016164;28;19913;-76
2022/03/03 04:30:38;;;;;;;67.18;13.27;;;;;;;-0.86;100.00;101922.66;5048557;28;20029;-77
2022/03/03 04:33:04;;;;;;;431.27;37.22;;;;;;;-0.91;100.00;101908.03;5049197;28;20037;-77
2022/03/03 04:35:29;;;;;;;504.23;37.90;;;;;;;-1.09;100.00;101920.09;5033746;28;20045;-77
2022/03/03 04:37:55;;;;;;;86.50;12.07;;;;;;;-0.90;100.00;101939.44;5036656;28;20028;-77
2022/03/03 04:40:21;;;;;;;144.48;16.38;;;;;;;-1.02;100.00;101939.91;5035873;28;20302;-77
2022/03/03 04:42:46;;;;;;;513.53;47.78;;;;;;;-0.96;100.00;101926.56;5036558;28;20029;-77
2022/03/03 04:45:12;;;;;;;515.05;33.00;;;;;;;-1.07;100.00;101928.75;5036346;28;20037;-77
2022/03/03 04:47:37;;;;;;;303.77;26.17;;;;;;;-1.14;100.00;101937.75;5036615;28;20336;-77
2022/03/03 04:50:04;;;;;;;212.00;23.30;;;;;;;-1.00;100.00;101932.84;5052727;28;20401;-77
2022/03/03 04:52:30;;;;;;;231.68;21.10;;;;;;;-1.01;100.00;101928.50;5055241;28;20025;-76
2022/03/03 04:54:55;;;;;;;239.60;20.83;;;;;;;-0.94;100.00;101937.84;5036895;28;20040;-77
2022/03/03 04:57:21;;;;;;;584.65;43.83;;;;;;;-0.97;100.00;101935.34;5019733;28;20311;-76
2022/03/03 04:59:47;;;;;;;;;;;;;;;-0.94;100.00;101937.84;5036185;28;20098;-77
2022/03/03 05:02:12;;;;;;;56.40;11.68;;;;;;;-0.98;100.00;101936.25;5019865;28;20019;-77
2022/03/03 05:04:38;;;;;;;119.43;14.80;;;;;;;-0.99;100.00;101931.91;5053747;28;20029;-76
2022/03/03 05:07:03;;;;;;;206.67;18.43;;;;;;;-0.94;100.00;101935.22;5053988;28;20340;-77
2022/03/03 05:09:28;;;;;;;465.45;35.53;;;;;;;-1.21;100.00;101923.19;5035455;28;20028;-76
2022/03/03 05:11:54;;;;;;;295.08;23.23;;;;;;;-1.15;100.00;101931.66;5019374;28;20041;-77
2022/03/03 05:14:19;;;;;;;179.30;15.00;;;;;;;-1.32;100.00;101924.41;5035820;28;20094;-76
2022/03/03 05:16:44;;;;;;;58.80;11.05;;;;;;;-1.22;100.00;101929.31;5052175;28;20132;-76
2022/03/03 05:19:10;;;;;;;170.45;17.73;;;;;;;-1.26;100.00;101918.13;5053501;28;20025;-77
2022/03/03 05:21:35;;;;;;;95.37;13.13;;;;;;;-1.42;100.00;101907.34;5053659;28;20032;-77
2022/03/03 05:24:00;;;;;;;340.10;25.38;;;;;;;-1.34;100.00;101926.25;5035613;28;20267;-77
2022/03/03 05:26:26;;;;;;;286.17;23.30;;;;;;;-1.44;100.00;101924.88;5035724;28;20036;-76
2022/03/03 05:28:52;;;;;;;116.90;16.98;;;;;;;-1.38;100.00;101924.66;5052124;28;20029;-76
2022/03/03 05:31:17;;;;;;;66.72;9.30;;;;;;;-1.34;100.00;101918.38;5051969;28;20039;-76
2022/03/03 05:33:43;;;;;;;43.58;11.10;;;;;;;-1.37;100.00;101928.13;5035478;28;20370;-76
2022/03/03 05:36:10;;;;;;;292.85;22.77;;;;;;;-1.28;100.00;101931.25;5053251;28;20394;-76
2022/03/03 05:38:36;;;;;;;31.23;9.15;;;;;;;-1.22;100.00;101935.41;5051821;28;20036;-76
2022/03/03 05:41:03;;;;;;;49.30;8.82;;;;;;;-1.23;100.00;101938.94;5018702;28;20033;-76
2022/03/03 05:43:29;;;;;;;28.23;8.90;;;;;;;-1.16;100.00;101944.81;5035453;28;20033;-77
2022/03/03 05:45:55;;;;;;;86.05;11.68;;;;;;;-1.18;100.00;101939.63;5053141;28;20428;-76
2022/03/03 05:48:22;;;;;;;35.22;10.35;;;;;;;-1.20;100.00;101941.44;5034499;28;20138;-76
2022/03/03 05:50:49;;;;;;;127.60;17.58;;;;;;;-1.21;100.00;101939.75;5035112;28;20036;-77
2022/03/03 05:53:14;;;;;;;;;;;;;;;-1.26;100.00;101941.69;5035811;28;20048;-77
2022/03/03 05:55:47;;;;;;;179.80;16.00;;;;;;;-1.19;100.00;101944.94;5035207;28;19909;-77
2022/03/03 05:58:19;;;;;;;127.45;12.90;;;;;;;-1.22;100.00;101940.66;5035101;28;20036;-76
2022/03/03 06:00:47;;;;;;;49.40;7.68;;;;;;;-1.25;100.00;101938.16;5034760;28;20055;-76
2022/03/03 06:03:15;;;;;;;99.80;11.30;;;;;;;-1.21;100.00;101946.78;5034904;28;20025;-76
2022/03/03 06:05:52;;;;;;;118.28;11.88;;;;;;;-1.22;100.00;101958.16;5018225;28;20120;-76
2022/03/03 06:08:23;;;;;;;60.05;9.57;;;;;;;-1.25;100.00;101960.88;5034916;28;20033;-77
2022/03/03 06:10:53;;;;;;;21.75;7.97;;;;;;;-1.16;100.00;101965.78;5021460;28;20033;-76
2022/03/03 06:13:24;;;;;;;186.95;15.27;;;;;;;-1.34;100.00;101954.22;5014387;28;20133;-76
2022/03/03 06:15:54;;;;;;;44.53;9.15;;;;;;;-1.24;100.00;101973.06;5014026;28;20029;-78
2022/03/03 06:18:28;;;;;;;40.75;9.88;;;;;;;-1.18;100.00;101970.22;5031481;28;20410;-76
2022/03/03 06:20:54;;;;;;;86.53;12.13;;;;;;;-1.10;100.00;101976.91;5029132;28;20544;-77
2022/03/03 06:23:20;;;;;;;28.27;8.90;;;;;;;-1.06;100.00;101975.00;5014788;28;20025;-76
2022/03/03 06:25:51;;;;;;;;;;;;;;;-1.00;100.00;101981.81;5015054;28;20049;-76
2022/03/03 06:28:16;;;;;;;29.83;7.53;;;;;;;-1.07;100.00;101968.91;5014425;28;19913;-77
2022/03/03 06:30:41;;;;;;;84.80;12.67;;;;;;;-1.07;100.00;101960.22;5014724;28;20029;-77
2022/03/03 06:33:07;;;;;;;40.53;8.77;;;;;;;-1.08;100.00;101968.97;5014719;28;20668;-77
2022/03/03 06:35:36;;;;;;;130.50;15.55;;;;;;;-1.08;100.00;101963.72;5014796;28;20037;-77
2022/03/03 06:38:06;;;;;;;78.93;10.52;;;;;;;-0.93;100.00;101978.03;5014376;28;20017;-76
2022/03/03 06:40:33;;;;;;;188.38;18.35;;;;;;;-1.02;100.00;101979.22;5014351;28;20410;-76
2022/03/03 06:43:01;;;;;;;239.18;17.73;;;;;;;-0.94;100.00;101982.41;5014622;28;20112;-76
2022/03/03 06:45:28;;;;;;;27.38;8.48;;;;;;;-0.82;100.00;101974.97;5014098;28;20033;-77
2022/03/03 06:48:00;;;;;;;109.53;13.52;;;;;;;-0.71;100.00;101983.28;4998377;28;20033;-77
2022/03/03 06:50:26;;;;;;;29.13;9.57;;;;;;;-0.69;100.00;101991.97;5031741;28;20037;-77
2022/03/03 06:52:51;;;;;;;236.82;19.75;;;;;;;-0.85;100.00;101989.06;5032238;28;20079;-77
2022/03/03 06:55:23;;;;;;;267.85;25.10;;;;;;;-0.84;100.00;101993.41;5014119;28;20066;-77
2022/03/03 06:57:50;;;;;;;60.63;12.85;;;;;;;-0.77;100.00;101980.91;5014076;28;20049;-78
2022/03/03 07:00:19;;;;;;;179.25;20.25;;;;;;;-0.64;100.00;101995.25;5013117;28;20484;-76
2022/03/03 07:02:47;;;;;;;217.88;21.27;;;;;;;-0.61;100.00;101997.75;5031782;28;20041;-77
2022/03/03 07:05:14;;;;;;;74.18;11.32;;;;;;;-0.57;100.00;101999.34;4997722;28;20051;-77
2022/03/03 07:07:41;;;;;;;282.83;28.10;;;;;;;-0.56;100.00;101998.44;4997929;28;20405;-78
2022/03/03 07:10:07;;;;;;;282.25;25.98;;;;;;;-0.51;100.00;102004.38;5030278;28;20025;-78
2022/03/03 07:12:34;;;;;;;297.50;22.77;;;;;;;-0.58;100.00;102000.28;5029998;28;20048;-77
2022/03/03 07:14:59;;;;;;;114.90;18.00;;;;;;;-0.60;100.00;102006.50;5013872;28;20029;-77
2022/03/03 07:17:43;;;;;;;359.20;24.33;;;;;;;-0.53;100.00;102003.56;5014082;28;20036;-77
2022/03/03 07:20:11;;;;;;;64.65;12.18;;;;;;;-0.49;100.00;102002.53;5013611;28;20067;-77
2022/03/03 07:22:40;;;;;;;82.10;13.90;;;;;;;-0.39;100.00;102010.06;5014001;28;20079;-77
2022/03/03 07:25:09;;;;;;;60.42;14.07;;;;;;;-0.28;100.00;102007.81;5013548;28;20040;-77
2022/03/03 07:27:40;;;;;;;128.18;15.73;;;;;;;-0.30;100.00;102004.44;5030391;28;20022;-76
2022/03/03 07:30:08;;;;;;;133.45;14.82;;;;;;;-0.20;100.00;102005.75;5013533;28;20056;-78
2022/03/03 07:32:37;;;;;;;81.40;11.85;;;;;;;0.01;100.00;101997.94;4997359;28;20120;-78
2022/03/03 07:35:10;;;;;;;125.38;19.65;;;;;;;0.04;100.00;101984.66;5031006;28;20037;-77
2022/03/03 07:37:40;;;;;;;230.32;21.70;;;;;;;0.04;100.00;101992.53;5031840;28;20367;-77
2022/03/03 07:40:08;;;;;;;80.80;15.23;;;;;;;0.02;100.00;101987.34;5030097;28;20048;-77
2022/03/03 07:42:35;;;;;;;159.38;21.77;;;;;;;0.03;100.00;101973.31;5013996;28;20467;-76
2022/03/03 07:45:03;;;;;;;64.05;12.10;;;;;;;0.15;100.00;101993.78;5030988;28;20121;-77
2022/03/03 07:47:29;;;;;;;250.15;28.55;;;;;;;0.12;100.00;101991.31;5030143;28;20036;-77
2022/03/03 07:49:56;;;;;;;142.73;20.88;;;;;;;0.19;100.00;101981.41;5012740;28;20041;-77
2022/03/03 07:52:23;;;;;;;158.35;18.25;;;;;;;0.26;100.00;101988.09;5030332;28;20032;-76
2022/03/03 07:54:48;;;;;;;91.90;18.35;;;;;;;0.30;100.00;101988.81;5029942;28;20051;-78
2022/03/03 07:57:16;;;;;;;89.83;17.63;;;;;;;0.30;100.00;101986.19;5013824;28;20521;-76
2022/03/03 07:59:46;;;;;;;115.32;17.15;;;;;;;0.32;100.00;101984.34;5030802;28;20371;-77
2022/03/03 08:02:18;;;;;;;145.05;21.13;;;;;;;0.33;100.00;101979.03;5030449;28;20033;-76
2022/03/03 08:04:45;;;;;;;54.75;12.98;;;;;;;0.36;100.00;101972.78;5030898;28;20029;-77
2022/03/03 08:07:13;;;;;;;119.93;15.90;;;;;;;0.44;100.00;101983.81;5013758;28;20021;-77
2022/03/03 08:09:40;;;;;;;97.72;13.65;;;;;;;0.38;100.00;101976.22;4996889;28;20030;-76
2022/03/03 08:12:07;;;;;;;128.52;18.40;;;;;;;0.37;100.00;101966.59;4997098;28;20044;-77
2022/03/03 08:14:34;;;;;;;41.08;11.50;;;;;;;0.83;100.00;101994.34;4997151;28;20505;-77
2022/03/03 08:17:00;;;;;;;49.80;14.15;;;;;;;0.68;100.00;101974.00;5031075;28;20029;-77
2022/03/03 08:19:26;;;;;;;44.75;13.50;;;;;;;0.71;100.00;101973.84;5030925;28;20090;-77
2022/03/03 08:21:52;;;;;;;80.07;14.65;;;;;;;0.86;100.00;101968.81;4996781;28;20120;-77
2022/03/03 08:24:17;;;;;;;29.98;12.70;;;;;;;1.15;100.00;101965.72;4997135;28;20088;-77
2022/03/03 08:26:44;;;;;;;30.83;10.65;;;;;;;1.55;100.00;101982.25;4996966;28;20095;-77
2022/03/03 08:29:11;;;;;;;28.80;9.45;;;;;;;1.51;100.00;101980.66;5030781;28;20041;-76
2022/03/03 08:31:49;;;;;;;31.90;9.68;;;;;;;1.30;100.00;101966.75;5031089;28;20557;-77
2022/03/03 08:34:35;;;;;;;24.17;9.43;;;;;;;1.26;100.00;101959.94;5013102;28;20037;-78
2022/03/03 08:37:06;;;;;;;24.25;9.75;;;;;;;1.40;100.00;101954.00;5013219;28;20079;-77
2022/03/03 08:39:38;;;;;;;26.60;10.88;;;;;;;1.48;100.00;101949.25;5028787;28;20128;-78
2022/03/03 08:42:08;;;;;;;29.30;9.90;;;;;;;1.53;100.00;101947.25;5012905;28;20043;-77
2022/03/03 08:44:35;;;;;;;29.23;10.57;;;;;;;1.48;100.00;101950.09;4995908;28;20034;-78
2022/03/03 08:47:03;;;;;;;22.13;8.38;;;;;;;1.56;100.00;101939.19;5011174;28;20025;-77
2022/03/03 08:49:36;;;;;;;23.48;8.70;;;;;;;1.48;100.00;101929.03;4996082;28;20083;-78
2022/03/03 08:52:04;;;;;;;30.00;9.13;;;;;;;1.54;100.00;101935.75;5029340;28;20045;-78
2022/03/03 08:54:30;;;;;;;24.10;8.57;;;;;;;1.62;100.00;101941.53;4996091;28;20132;-78
2022/03/03 08:56:55;;;;;;;15.40;6.75;;;;;;;1.64;100.00;101941.47;4996696;28;20120;-78
2022/03/03 08:59:20;;;;;;;16.57;7.03;;;;;;;1.54;100.00;101922.59;5012929;28;20394;-78
2022/03/03 09:01:46;;;;;;;15.73;6.67;;;;;;;1.36;100.00;101923.50;5013562;28;20040;-77
2022/03/03 09:04:12;;;;;;;12.15;6.13;;;;;;;1.25;100.00;101926.66;4997039;28;20701;-77
2022/03/03 09:06:37;;;;;;;13.88;5.97;;;;;;;1.35;100.00;101921.81;5031092;28;20471;-78
2022/03/03 09:09:03;;;;;;;17.20;6.75;;;;;;;1.42;100.00;101924.06;5013201;28;20033;-79
2022/03/03 09:11:28;;;;;;;13.40;6.27;;;;;;;1.30;100.00;101914.13;5013316;28;20029;-78
2022/03/03 09:13:54;;;;;;;17.97;6.93;;;;;;;1.42;100.00;101929.31;4996817;28;20057;-77
2022/03/03 09:16:21;;;;;;;14.37;6.60;;;;;;;1.44;100.00;101926.63;5030555;28;20034;-78
2022/03/03 09:18:47;;;;;;;12.70;5.80;;;;;;;1.34;100.00;101914.84;5012536;28;20275;-78
2022/03/03 09:21:13;;;;;;;;;;;;;;;1.44;100.00;101910.84;5013805;28;20037;-76
2022/03/03 09:23:38;;;;;;;13.90;6.05;;;;;;;1.59;100.00;101909.22;5000498;28;19913;-78
2022/03/03 09:26:04;;;;;;;18.37;6.83;;;;;;;1.65;100.00;101909.78;5016743;28;20558;-77
2022/03/03 09:28:29;;;;;;;10.38;5.55;;;;;;;1.83;100.00;101909.78;5000237;28;20280;-78
2022/03/03 09:30:56;;;;;;;11.45;6.13;;;;;;;1.99;100.00;101902.81;5016642;28;20072;-77
2022/03/03 09:33:22;;;;;;;13.60;6.07;;;;;;;2.10;100.00;101905.72;5016535;28;20403;-77
2022/03/03 09:35:47;;;;;;;11.48;6.60;;;;;;;2.12;100.00;101897.75;4999754;28;20036;-76
2022/03/03 09:38:13;;;;;;;12.47;6.07;;;;;;;2.07;100.00;101895.34;4999742;28;20029;-77
2022/03/03 09:40:38;;;;;;;12.40;5.37;;;;;;;2.11;100.00;101882.88;5015623;28;20453;-77
2022/03/03 09:43:06;;;;;;;9.27;4.70;;;;;;;2.21;100.00;101893.78;5033985;28;20033;-77
2022/03/03 09:45:33;;;;;;;12.57;5.57;;;;;;;2.05;100.00;101883.19;5015829;28;20095;-77
2022/03/03 09:48:00;;;;;;;16.92;6.07;;;;;;;1.92;100.00;101901.44;4999856;28;20018;-77
2022/03/03 09:50:26;;;;;;;9.63;5.55;;;;;;;2.08;100.00;101886.53;5014711;28;20099;-77
2022/03/03 09:52:52;;;;;;;;;;;;;;;2.29;100.00;101900.38;5016208;28;20040;-77
2022/03/03 09:55:19;;;;;;;12.73;6.30;;;;;;;1.51;100.00;101880.66;5015335;28;20369;-77
2022/03/03 09:57:45;;;;;;;12.73;6.10;;;;;;;1.25;100.00;101872.25;5015863;28;20245;-77
2022/03/03 10:00:12;;;;;;;10.98;6.03;;;;;;;0.72;100.00;101875.66;5026505;23;20072;-74
2022/03/03 10:02:55;;;;;;;21.60;8.15;;;;;;;1.35;100.00;101900.75;5082073;28;20040;-73
2022/03/03 10:05:32;;;;;;;12.15;5.57;;;;;;;1.72;100.00;101904.22;5075114;28;20032;-73
2022/03/03 10:08:08;;;;;;;12.02;5.30;;;;;;;1.97;100.00;101898.56;5075598;28;20123;-73
2022/03/03 10:10:36;;;;;;;12.55;6.50;;;;;;;2.19;100.00;101893.00;5074600;28;20464;-74
2022/03/03 10:13:02;;;;;;;12.38;5.47;;;;;;;2.26;100.00;101891.75;5093220;28;20408;-74
2022/03/03 10:15:29;;;;;;;14.27;5.93;;;;;;;1.84;100.00;101885.16;5074862;28;20058;-73
2022/03/03 10:17:58;;;;;;;11.98;5.68;;;;;;;1.65;100.00;101890.50;5091730;28;20518;-73
2022/03/03 10:20:25;;;;;;;12.73;6.32;;;;;;;1.71;100.00;101878.78;5074395;28;20047;-73
2022/03/03 10:22:57;;;;;;;;;;;;;;;2.05;100.00;101886.69;5092274;28;20028;-73
2022/03/03 10:25:42;;;;;;;11.07;5.50;;;;;;;1.21;100.00;101870.69;5074705;28;19919;-73
2022/03/03 10:28:22;;;;;;;12.55;6.97;;;;;;;1.00;100.00;101887.50;5074981;28;20040;-73
2022/03/03 10:30:48;;;;;;;17.77;8.95;;;;;;;1.35;100.00;101906.88;5074334;28;20032;-73
2022/03/03 10:33:15;;;;;;;15.37;7.63;;;;;;;1.79;100.00;101905.59;5092686;28;20086;-73
2022/03/03 10:35:41;;;;;;;16.55;8.00;;;;;;;1.34;100.00;101894.66;5074467;28;20043;-73
2022/03/03 10:38:06;;;;;;;16.27;7.63;;;;;;;1.39;100.00;101913.69;5057844;28;20024;-73
2022/03/03 10:40:31;;;;;;;15.63;7.07;;;;;;;1.82;100.00;101910.72;5092573;28;20031;-73
2022/03/03 10:42:57;;;;;;;15.17;7.87;;;;;;;1.85;100.00;101911.41;5074227;28;20039;-74
2022/03/03 10:45:22;;;;;;;15.20;7.33;;;;;;;2.59;100.00;101919.91;5092294;28;20131;-74
2022/03/03 10:48:03;;;;;;;12.98;6.90;;;;;;;2.87;100.00;101927.16;5073972;28;20028;-73
2022/03/03 10:50:48;;;;;;;19.02;7.38;;;;;;;2.04;100.00;101894.69;5091815;28;20038;-74
2022/03/03 10:53:22;;;;;;;13.15;7.07;;;;;;;2.14;100.00;101895.88;5092274;28;20035;-74
2022/03/03 10:56:08;;;;;;;13.35;6.18;;;;;;;2.54;100.00;101897.25;5057223;28;20032;-74
2022/03/03 10:58:52;;;;;;;9.73;5.88;;;;;;;2.33;100.00;101877.31;5091917;28;20036;-74
2022/03/03 11:01:20;;;;;;;11.98;5.57;;;;;;;2.59;100.00;101886.47;5091774;28;20032;-73
2022/03/03 11:03:49;;;;;;;11.82;5.35;;;;;;;2.88;100.00;101886.66;5073875;28;20031;-73
2022/03/03 11:06:26;;;;;;;11.15;5.18;;;;;;;3.33;100.00;101899.06;5092124;28;20115;-73